createdAt,value
2017-07-30T00:00:17.497Z,5.53
2017-07-30T00:02:45.035Z,5.90
2017-07-30T00:05:13.323Z,5.73
2017-07-30T00:07:40.852Z,5.90
2017-07-30T00:10:09.127Z,6.23
2017-07-30T00:12:37.414Z,5.27
2017-07-30T00:15:05.676Z,5.83
2017-07-30T00:17:33.236Z,5.50
2017-07-30T00:20:00.803Z,5.87
2017-07-30T00:22:29.060Z,5.37
2017-07-30T00:24:56.661Z,6.50
2017-07-30T00:27:24.204Z,5.47
2017-07-30T00:29:52.479Z,6.13
2017-07-30T00:32:20.726Z,5.17
2017-07-30T00:34:48.207Z,5.60
2017-07-30T00:37:16.496Z,5.70
2017-07-30T00:39:44.762Z,5.80
2017-07-30T00:42:13.037Z,5.83
2017-07-30T00:44:41.288Z,5.90
2017-07-30T00:47:08.790Z,5.13
2017-07-30T00:49:37.052Z,5.60
2017-07-30T00:52:05.331Z,6.33
2017-07-30T00:54:32.894Z,5.37
2017-07-30T00:57:01.163Z,5.40
2017-07-30T00:59:29.426Z,5.93
2017-07-30T01:01:57.000Z,5.60
2017-07-30T01:04:25.283Z,5.10
2017-07-30T01:06:52.830Z,5.63
2017-07-30T01:09:21.091Z,5.10
2017-07-30T01:11:48.567Z,5.17
2017-07-30T01:14:16.823Z,4.63
2017-07-30T01:16:44.310Z,5.30
2017-07-30T01:19:12.578Z,5.23
2017-07-30T01:21:40.849Z,5.20
2017-07-30T01:24:08.414Z,5.63
2017-07-30T01:26:36.695Z,5.40
2017-07-30T01:29:04.973Z,5.70
2017-07-30T01:31:33.240Z,4.70
2017-07-30T01:34:01.513Z,5.10
2017-07-30T01:36:29.792Z,5.30
2017-07-30T01:38:58.074Z,4.80
2017-07-30T01:41:26.324Z,5.77
2017-07-30T01:43:53.801Z,5.60
2017-07-30T01:46:22.058Z,5.43
2017-07-30T01:48:49.629Z,5.07
2017-07-30T01:51:17.206Z,5.40
2017-07-30T01:53:45.446Z,5.00
2017-07-30T01:56:13.062Z,5.63
2017-07-30T01:58:40.596Z,5.00
2017-07-30T02:01:08.878Z,5.27
2017-07-30T02:03:37.155Z,5.00
2017-07-30T02:06:06.250Z,5.33
2017-07-30T02:08:34.522Z,5.20
2017-07-30T02:11:02.798Z,5.20
2017-07-30T02:13:31.082Z,5.20
2017-07-30T02:15:59.339Z,5.10
2017-07-30T02:18:26.918Z,5.40
2017-07-30T02:20:55.190Z,6.13
2017-07-30T02:23:23.457Z,5.73
2017-07-30T02:25:50.914Z,4.97
2017-07-30T02:28:19.188Z,5.53
2017-07-30T02:30:46.760Z,5.30
2017-07-30T02:33:15.026Z,6.13
2017-07-30T02:35:42.500Z,5.60
2017-07-30T02:38:10.060Z,5.50
2017-07-30T02:40:38.346Z,4.93
2017-07-30T02:43:05.885Z,5.27
2017-07-30T02:45:34.161Z,4.87
2017-07-30T02:48:02.408Z,5.27
2017-07-30T02:50:29.896Z,5.57
2017-07-30T02:52:58.169Z,5.67
2017-07-30T02:55:27.373Z,5.50
2017-07-30T02:57:54.840Z,7.13
2017-07-30T03:00:22.391Z,5.40
2017-07-30T03:02:50.665Z,5.47
2017-07-30T03:05:19.020Z,6.00
2017-07-30T03:07:46.514Z,6.20
2017-07-30T03:10:14.751Z,5.17
2017-07-30T03:12:42.243Z,5.80
2017-07-30T03:15:09.789Z,5.80
2017-07-30T03:17:38.061Z,5.50
2017-07-30T03:20:06.346Z,6.20
2017-07-30T03:22:34.578Z,5.53
2017-07-30T03:25:02.065Z,5.97
2017-07-30T03:27:29.534Z,5.60
2017-07-30T03:29:57.806Z,6.33
2017-07-30T03:32:26.079Z,5.97
2017-07-30T03:34:53.576Z,6.17
2017-07-30T03:37:21.107Z,5.13
2017-07-30T03:39:49.346Z,5.60
2017-07-30T03:42:16.854Z,5.10
2017-07-30T03:44:44.354Z,5.70
2017-07-30T03:47:11.960Z,5.50
2017-07-30T03:49:40.222Z,5.70
2017-07-30T03:52:07.784Z,5.17
2017-07-30T03:54:35.358Z,5.37
2017-07-30T03:57:03.616Z,6.10
2017-07-30T03:59:31.103Z,5.70
2017-07-30T04:01:58.654Z,5.93
2017-07-30T04:04:26.913Z,5.30
2017-07-30T04:06:54.399Z,5.70
2017-07-30T04:09:21.943Z,5.73
2017-07-30T04:11:50.207Z,5.50
2017-07-30T04:14:17.686Z,6.00
2017-07-30T04:16:46.061Z,5.70
2017-07-30T04:19:14.296Z,5.93
2017-07-30T04:21:41.769Z,5.80
2017-07-30T04:24:09.240Z,5.27
2017-07-30T04:26:36.799Z,5.60
2017-07-30T04:29:05.060Z,5.30
2017-07-30T04:31:32.636Z,5.33
2017-07-30T04:34:00.886Z,5.57
2017-07-30T04:36:28.378Z,5.67
2017-07-30T04:38:56.649Z,5.10
2017-07-30T04:41:24.895Z,5.67
2017-07-30T04:43:52.381Z,5.00
2017-07-30T04:46:20.656Z,6.30
2017-07-30T04:48:48.934Z,5.73
2017-07-30T04:51:17.213Z,5.97
2017-07-30T04:53:45.495Z,5.80
2017-07-30T04:56:13.758Z,6.10
2017-07-30T04:58:42.033Z,5.67
2017-07-30T05:01:10.322Z,5.37
2017-07-30T05:03:38.606Z,4.53
2017-07-30T05:06:06.865Z,6.13
2017-07-30T05:08:35.142Z,4.87
2017-07-30T05:11:03.426Z,6.40
2017-07-30T05:13:31.679Z,5.60
2017-07-30T05:15:59.259Z,5.17
2017-07-30T05:18:27.546Z,5.50
2017-07-30T05:20:55.787Z,5.30
2017-07-30T05:23:23.275Z,5.13
2017-07-30T05:25:51.648Z,4.97
2017-07-30T05:28:19.927Z,5.57
2017-07-30T05:30:48.194Z,5.60
2017-07-30T05:33:16.441Z,5.57
2017-07-30T05:35:43.926Z,5.60
2017-07-30T05:38:11.403Z,5.20
2017-07-30T05:40:39.670Z,5.40
2017-07-30T05:43:07.943Z,5.80
2017-07-30T05:45:36.186Z,5.23
2017-07-30T05:48:03.682Z,5.40
2017-07-30T05:50:31.940Z,5.50
2017-07-30T05:52:59.540Z,5.33
2017-07-30T05:55:27.067Z,5.63
2017-07-30T05:57:54.667Z,5.27
2017-07-30T06:00:22.195Z,5.13
2017-07-30T06:02:50.474Z,4.10
2017-07-30T06:05:18.975Z,5.00
2017-07-30T06:07:46.463Z,5.00
2017-07-30T06:10:13.963Z,4.73
2017-07-30T06:12:43.050Z,4.90
2017-07-30T06:15:10.631Z,7.37
2017-07-30T06:17:38.902Z,5.50
2017-07-30T06:20:07.128Z,4.70
2017-07-30T06:22:34.647Z,5.60
2017-07-30T06:25:02.227Z,5.07
2017-07-30T06:27:29.716Z,4.80
2017-07-30T06:29:57.179Z,4.97
2017-07-30T06:32:24.671Z,4.40
2017-07-30T06:34:52.904Z,5.27
2017-07-30T06:37:20.394Z,5.30
2017-07-30T06:39:48.636Z,4.43
2017-07-30T06:42:16.231Z,4.40
2017-07-30T06:44:44.519Z,4.47
2017-07-30T06:47:12.786Z,4.23
2017-07-30T06:49:41.064Z,4.50
2017-07-30T06:52:09.338Z,4.53
2017-07-30T06:54:37.655Z,4.77
2017-07-30T06:57:05.169Z,4.37
2017-07-30T06:59:32.750Z,4.30
2017-07-30T07:02:00.300Z,4.70
2017-07-30T07:04:28.576Z,4.53
2017-07-30T07:06:56.833Z,4.10
2017-07-30T07:09:25.138Z,4.03
2017-07-30T07:11:52.684Z,3.90
2017-07-30T07:14:21.084Z,4.37
2017-07-30T07:16:48.632Z,4.10
2017-07-30T07:19:16.185Z,4.40
2017-07-30T07:21:44.419Z,3.73
2017-07-30T07:24:11.927Z,3.70
2017-07-30T07:26:39.410Z,4.40
2017-07-30T07:29:06.895Z,4.13
2017-07-30T07:31:34.406Z,4.23
2017-07-30T07:34:01.890Z,3.90
2017-07-30T07:36:29.399Z,4.17
2017-07-30T07:38:57.654Z,3.90
2017-07-30T07:41:25.159Z,4.27
2017-07-30T07:43:52.692Z,4.00
2017-07-30T07:46:20.968Z,3.50
2017-07-30T07:48:49.217Z,4.30
2017-07-30T07:51:16.815Z,3.83
2017-07-30T07:53:45.102Z,3.80
2017-07-30T07:56:13.384Z,3.47
2017-07-30T07:58:40.910Z,3.33
2017-07-30T08:01:08.394Z,3.60
2017-07-30T08:03:35.945Z,3.60
2017-07-30T08:06:04.563Z,3.53
2017-07-30T08:08:32.068Z,3.57
2017-07-30T08:10:59.657Z,4.00
2017-07-30T08:13:27.205Z,3.77
2017-07-30T08:15:55.480Z,4.00
2017-07-30T08:18:23.759Z,3.60
2017-07-30T08:20:52.023Z,4.00
2017-07-30T08:23:20.326Z,4.27
2017-07-30T08:25:47.820Z,3.70
2017-07-30T08:28:15.310Z,3.90
2017-07-30T08:30:42.896Z,3.30
2017-07-30T08:33:11.158Z,3.37
2017-07-30T08:35:39.417Z,3.60
2017-07-30T08:38:06.988Z,3.60
2017-07-30T08:40:34.561Z,3.80
2017-07-30T08:43:02.824Z,3.40
2017-07-30T08:45:31.111Z,3.60
2017-07-30T08:47:59.383Z,4.47
2017-07-30T08:50:27.651Z,3.50
2017-07-30T08:52:55.145Z,3.70
2017-07-30T08:55:22.694Z,3.50
2017-07-30T08:57:50.244Z,3.77
2017-07-30T09:00:18.504Z,3.63
2017-07-30T09:02:59.486Z,3.60
2017-07-30T09:05:27.966Z,3.67
2017-07-30T09:07:56.226Z,3.47
2017-07-30T09:10:23.712Z,3.50
2017-07-30T09:12:51.976Z,3.53
2017-07-30T09:15:20.257Z,3.67
2017-07-30T09:17:48.527Z,3.87
2017-07-30T09:20:16.809Z,3.70
2017-07-30T09:22:45.082Z,3.42
2017-07-30T09:25:13.352Z,4.03
2017-07-30T09:27:41.742Z,3.67
2017-07-30T09:30:09.999Z,3.80
2017-07-30T09:32:37.474Z,3.77
2017-07-30T09:35:05.781Z,3.80
2017-07-30T09:37:33.254Z,3.90
2017-07-30T09:40:00.738Z,4.10
2017-07-30T09:42:28.327Z,3.80
2017-07-30T09:44:56.584Z,3.87
2017-07-30T09:47:27.291Z,3.50
2017-07-30T09:49:54.791Z,3.80
2017-07-30T09:52:22.359Z,3.27
2017-07-30T09:54:50.633Z,3.90
2017-07-30T09:57:18.909Z,3.93
2017-07-30T09:59:47.176Z,3.60
2017-07-30T10:02:14.669Z,3.63
2017-07-30T10:04:42.204Z,3.37
2017-07-30T10:07:10.617Z,4.00
2017-07-30T10:09:38.131Z,3.87
2017-07-30T10:12:06.421Z,3.67
2017-07-30T10:14:34.664Z,3.60
2017-07-30T10:17:02.247Z,2.97
2017-07-30T10:19:30.537Z,3.90
2017-07-30T10:21:59.425Z,3.17
2017-07-30T10:24:27.672Z,4.30
2017-07-30T10:26:55.255Z,4.30
2017-07-30T10:29:23.533Z,3.80
2017-07-30T10:31:51.810Z,3.83
2017-07-30T10:34:20.086Z,3.53
2017-07-30T10:36:48.364Z,3.70
2017-07-30T10:39:15.911Z,3.37
2017-07-30T10:41:43.399Z,3.50
2017-07-30T10:44:10.877Z,3.53
2017-07-30T10:46:38.400Z,3.30
2017-07-30T10:49:06.684Z,3.30
2017-07-30T10:51:34.226Z,3.80
2017-07-30T10:54:01.802Z,3.30
2017-07-30T10:56:29.345Z,3.40
2017-07-30T10:58:57.628Z,3.23
2017-07-30T11:01:25.890Z,3.97
2017-07-30T11:03:53.459Z,3.30
2017-07-30T11:06:21.738Z,3.57
2017-07-30T11:08:50.013Z,3.83
2017-07-30T11:11:18.286Z,3.50
2017-07-30T11:13:46.565Z,4.40
2017-07-30T11:16:14.849Z,3.53
2017-07-30T11:18:43.120Z,3.20
2017-07-30T11:21:11.366Z,3.60
2017-07-30T11:23:38.862Z,3.63
2017-07-30T11:26:07.136Z,3.60
2017-07-30T11:28:35.493Z,3.97
2017-07-30T11:31:02.979Z,4.30
2017-07-30T11:33:31.362Z,3.37
2017-07-30T11:35:58.857Z,4.07
2017-07-30T11:38:26.354Z,3.97
2017-07-30T11:40:53.919Z,3.53
2017-07-30T11:43:22.210Z,3.30
2017-07-30T11:45:49.717Z,4.00
2017-07-30T11:48:17.206Z,3.80
2017-07-30T11:50:44.693Z,3.90
2017-07-30T11:53:12.223Z,4.27
2017-07-30T11:55:40.511Z,3.73
2017-07-30T11:58:08.772Z,4.00
2017-07-30T12:00:36.330Z,4.47
2017-07-30T12:03:03.894Z,3.87
2017-07-30T12:05:31.465Z,4.43
2017-07-30T12:07:59.759Z,3.17
2017-07-30T12:10:27.285Z,3.67
2017-07-30T12:12:54.852Z,3.60
2017-07-30T12:15:23.137Z,3.80
2017-07-30T12:17:51.419Z,3.97
2017-07-30T12:20:19.691Z,3.90
2017-07-30T12:22:47.191Z,3.80
2017-07-30T12:25:14.702Z,4.53
2017-07-30T12:27:42.952Z,3.97
2017-07-30T12:30:10.431Z,3.73
2017-07-30T12:32:37.915Z,3.30
2017-07-30T12:35:05.462Z,3.70
2017-07-30T12:37:33.007Z,3.70
2017-07-30T12:40:01.293Z,3.20
2017-07-30T12:42:29.574Z,4.40
2017-07-30T12:44:57.848Z,4.43
2017-07-30T12:47:26.115Z,4.17
2017-07-30T12:49:54.362Z,4.00
2017-07-30T12:52:21.946Z,3.30
2017-07-30T12:54:50.242Z,3.97
2017-07-30T12:57:18.509Z,3.80
2017-07-30T12:59:46.791Z,3.37
2017-07-30T13:02:14.308Z,3.93
2017-07-30T13:04:41.785Z,3.47
2017-07-30T13:07:09.266Z,4.03
2017-07-30T13:09:37.526Z,3.50
2017-07-30T13:12:05.007Z,3.70
2017-07-30T13:14:32.549Z,3.90
2017-07-30T13:17:00.828Z,3.60
2017-07-30T13:19:29.101Z,4.00
2017-07-30T13:21:57.391Z,4.00
2017-07-30T13:24:25.634Z,4.43
2017-07-30T13:26:53.216Z,3.57
2017-07-30T13:29:21.479Z,4.20
2017-07-30T13:31:48.965Z,3.90
2017-07-30T13:34:17.229Z,4.30
2017-07-30T13:36:44.794Z,4.13
2017-07-30T13:39:13.082Z,4.57
2017-07-30T13:41:40.633Z,4.10
2017-07-30T13:44:08.897Z,3.80
2017-07-30T13:46:37.181Z,3.90
2017-07-30T13:49:05.448Z,3.73
2017-07-30T13:51:33.730Z,3.80
2017-07-30T13:54:02.002Z,3.73
2017-07-30T13:56:30.289Z,3.70
2017-07-30T13:58:58.550Z,3.80
2017-07-30T14:01:26.118Z,4.00
2017-07-30T14:03:54.393Z,4.50
2017-07-30T14:06:21.949Z,4.03
2017-07-30T14:08:50.230Z,3.50
2017-07-30T14:11:18.504Z,3.70
2017-07-30T14:13:46.777Z,4.63
2017-07-30T14:16:15.055Z,4.30
2017-07-30T14:18:43.331Z,3.80
2017-07-30T14:21:11.602Z,4.20
2017-07-30T14:23:39.078Z,4.30
2017-07-30T14:26:07.335Z,3.77
2017-07-30T14:28:34.890Z,3.80
2017-07-30T14:31:02.479Z,4.20
2017-07-30T14:33:30.019Z,3.47
2017-07-30T14:35:58.306Z,3.90
2017-07-30T14:38:25.846Z,3.70
2017-07-30T14:40:53.349Z,3.40
2017-07-30T14:43:20.824Z,3.60
2017-07-30T14:45:48.329Z,3.80
2017-07-30T14:48:16.607Z,3.43
2017-07-30T14:50:44.862Z,3.30
2017-07-30T14:53:12.461Z,3.90
2017-07-30T14:55:39.937Z,4.10
2017-07-30T14:58:15.453Z,3.00
2017-07-30T15:00:43.730Z,3.63
2017-07-30T15:03:11.998Z,4.00
2017-07-30T15:05:40.243Z,3.50
2017-07-30T15:08:07.834Z,3.33
2017-07-30T15:10:36.115Z,4.00
2017-07-30T15:13:04.383Z,5.20
2017-07-30T15:15:32.663Z,3.93
2017-07-30T15:18:00.939Z,3.60
2017-07-30T15:20:29.202Z,3.63
2017-07-30T15:22:56.742Z,3.90
2017-07-30T15:25:24.235Z,4.13
2017-07-30T15:27:52.473Z,3.73
2017-07-30T15:30:19.961Z,3.60
2017-07-30T15:32:48.203Z,4.30
2017-07-30T15:35:16.005Z,3.93
2017-07-30T15:37:44.245Z,3.70
2017-07-30T15:40:11.751Z,3.77
2017-07-30T15:42:40.016Z,3.67
2017-07-30T15:45:08.287Z,3.90
2017-07-30T15:47:35.850Z,3.97
2017-07-30T15:50:04.124Z,4.10
2017-07-30T15:52:31.685Z,4.23
2017-07-30T15:54:59.963Z,4.10
2017-07-30T15:57:27.529Z,3.80
2017-07-30T15:59:55.799Z,3.43
2017-07-30T16:02:23.351Z,3.67
2017-07-30T16:04:50.917Z,3.77
2017-07-30T16:07:19.202Z,4.43
2017-07-30T16:09:47.484Z,6.30
2017-07-30T16:12:15.767Z,5.53
2017-07-30T16:14:43.317Z,4.07
2017-07-30T16:17:11.580Z,3.73
2017-07-30T16:19:39.060Z,4.53
2017-07-30T16:22:06.602Z,4.50
2017-07-30T16:24:34.882Z,4.57
2017-07-30T16:27:03.158Z,3.43
2017-07-30T16:29:31.394Z,3.83
2017-07-30T16:31:58.991Z,4.97
2017-07-30T16:34:27.270Z,3.57
2017-07-30T16:36:55.558Z,3.97
2017-07-30T16:39:23.836Z,4.07
2017-07-30T16:41:51.332Z,4.63
2017-07-30T16:44:18.841Z,4.50
2017-07-30T16:46:47.114Z,4.70
2017-07-30T16:49:15.392Z,3.90
2017-07-30T16:51:43.661Z,3.43
2017-07-30T16:54:11.936Z,3.70
2017-07-30T16:56:39.515Z,4.13
2017-07-30T16:59:07.787Z,3.70
2017-07-30T17:01:36.087Z,4.00
2017-07-30T17:04:03.751Z,4.20
2017-07-30T17:06:31.281Z,3.50
2017-07-30T17:08:59.545Z,3.90
2017-07-30T17:11:27.830Z,3.83
2017-07-30T17:13:56.114Z,3.77
2017-07-30T17:16:24.405Z,3.73
2017-07-30T17:18:51.919Z,4.17
2017-07-30T17:21:19.390Z,4.07
2017-07-30T17:23:46.981Z,3.87
2017-07-30T17:26:14.465Z,3.77
2017-07-30T17:28:41.974Z,3.90
2017-07-30T17:31:10.248Z,3.77
2017-07-30T17:33:38.530Z,3.90
2017-07-30T17:36:06.798Z,3.60
2017-07-30T17:38:35.082Z,4.10
2017-07-30T17:41:03.352Z,5.07
2017-07-30T17:43:31.643Z,4.90
2017-07-30T17:45:59.907Z,4.30
2017-07-30T17:48:28.159Z,4.17
2017-07-30T17:50:55.746Z,3.70
2017-07-30T17:53:24.027Z,4.00
2017-07-30T17:55:52.286Z,4.80
2017-07-30T17:58:19.845Z,3.60
2017-07-30T18:00:47.416Z,3.97
2017-07-30T18:03:15.701Z,3.57
2017-07-30T18:05:43.970Z,3.80
2017-07-30T18:08:12.213Z,3.80
2017-07-30T18:10:39.812Z,3.80
2017-07-30T18:13:08.073Z,4.30
2017-07-30T18:15:35.642Z,3.97
2017-07-30T18:18:03.925Z,4.37
2017-07-30T18:20:32.184Z,4.07
2017-07-30T18:23:00.221Z,3.83
2017-07-30T18:25:27.714Z,3.67
2017-07-30T18:27:55.283Z,3.90
2017-07-30T18:30:22.833Z,3.73
2017-07-30T18:32:50.311Z,3.67
2017-07-30T18:35:18.958Z,4.73
2017-07-30T18:37:46.575Z,4.67
2017-07-30T18:40:14.102Z,4.10
2017-07-30T18:42:42.380Z,4.20
2017-07-30T18:45:10.634Z,4.27
2017-07-30T18:47:38.134Z,4.50
2017-07-30T18:50:05.679Z,3.70
2017-07-30T18:52:34.869Z,4.63
2017-07-30T18:55:03.157Z,4.20
2017-07-30T18:57:31.526Z,3.80
2017-07-30T18:59:59.010Z,4.17
2017-07-30T19:02:26.533Z,4.57
2017-07-30T19:04:54.027Z,6.07
2017-07-30T19:07:21.527Z,5.37
2017-07-30T19:09:49.002Z,4.67
2017-07-30T19:12:16.497Z,4.20
2017-07-30T19:14:44.025Z,4.70
2017-07-30T19:17:11.496Z,5.40
2017-07-30T19:19:39.767Z,5.10
2017-07-30T19:22:08.050Z,4.17
2017-07-30T19:24:36.314Z,4.80
2017-07-30T19:27:04.571Z,4.20
2017-07-30T19:29:32.076Z,4.10
2017-07-30T19:31:59.627Z,4.30
2017-07-30T19:34:27.112Z,4.53
2017-07-30T19:36:54.665Z,4.30
2017-07-30T19:39:22.201Z,5.00
2017-07-30T19:41:50.465Z,3.90
2017-07-30T19:44:18.736Z,4.70
2017-07-30T19:46:46.304Z,5.00
2017-07-30T19:49:14.581Z,4.40
2017-07-30T19:51:42.860Z,4.60
2017-07-30T19:54:11.231Z,5.20
2017-07-30T19:56:39.484Z,4.90
2017-07-30T19:59:07.065Z,5.30
2017-07-30T20:01:35.345Z,4.93
2017-07-30T20:04:03.632Z,5.27
2017-07-30T20:06:32.078Z,5.03
2017-07-30T20:08:59.666Z,4.70
2017-07-30T20:11:27.939Z,4.87
2017-07-30T20:13:56.197Z,4.80
2017-07-30T20:16:23.781Z,4.07
2017-07-30T20:18:52.053Z,4.60
2017-07-30T20:21:20.345Z,4.47
2017-07-30T20:23:47.837Z,4.53
2017-07-30T20:26:15.359Z,4.57
2017-07-30T20:28:43.612Z,4.53
2017-07-30T20:31:11.185Z,5.37
2017-07-30T20:33:39.453Z,4.90
2017-07-30T20:36:07.713Z,5.30
2017-07-30T20:38:35.306Z,5.40
2017-07-30T20:41:03.583Z,5.60
2017-07-30T20:43:31.072Z,5.50
2017-07-30T20:45:58.580Z,5.07
2017-07-30T20:48:26.831Z,5.20
2017-07-30T20:50:54.431Z,5.00
2017-07-30T20:53:22.802Z,4.60
2017-07-30T20:55:51.078Z,4.93
2017-07-30T20:58:19.365Z,4.70
2017-07-30T21:00:47.626Z,5.10
2017-07-30T21:03:15.902Z,4.60
2017-07-30T21:05:43.471Z,4.50
2017-07-30T21:08:11.751Z,4.87
2017-07-30T21:10:39.988Z,4.70
2017-07-30T21:13:07.589Z,4.70
2017-07-30T21:15:35.857Z,4.63
2017-07-30T21:18:04.153Z,4.30
2017-07-30T21:20:31.695Z,4.77
2017-07-30T21:22:59.967Z,5.57
2017-07-30T21:25:28.240Z,4.53
2017-07-30T21:27:56.631Z,4.93
2017-07-30T21:30:24.912Z,4.63
2017-07-30T21:32:52.421Z,5.20
2017-07-30T21:35:20.004Z,5.30
2017-07-30T21:37:47.481Z,5.00
2017-07-30T21:40:15.733Z,5.80
2017-07-30T21:42:43.313Z,5.27
2017-07-30T21:45:11.680Z,5.10
2017-07-30T21:47:39.171Z,4.80
2017-07-30T21:50:06.711Z,4.90
2017-07-30T21:52:34.988Z,5.20
2017-07-30T21:55:03.255Z,5.40
2017-07-30T21:57:31.570Z,4.50
2017-07-30T22:00:05.346Z,5.07
2017-07-30T22:02:32.833Z,4.30
2017-07-30T22:05:00.462Z,4.63
2017-07-30T22:07:27.944Z,4.80
2017-07-30T22:09:55.459Z,4.87
2017-07-30T22:12:23.047Z,4.50
2017-07-30T22:14:51.322Z,5.30
2017-07-30T22:17:18.883Z,5.20
2017-07-30T22:19:46.423Z,5.57
2017-07-30T22:22:14.707Z,4.80
2017-07-30T22:24:42.966Z,5.83
2017-07-30T22:27:10.474Z,5.63
2017-07-30T22:29:38.001Z,6.27
2017-07-30T22:32:06.271Z,5.20
2017-07-30T22:34:34.522Z,4.67
2017-07-30T22:37:02.118Z,4.80
2017-07-30T22:39:30.360Z,5.40
2017-07-30T22:41:57.952Z,5.00
2017-07-30T22:44:26.225Z,5.27
2017-07-30T22:46:54.487Z,5.03
2017-07-30T22:49:22.052Z,5.63
2017-07-30T22:51:49.546Z,5.03
2017-07-30T22:54:17.019Z,5.97
2017-07-30T22:56:44.536Z,5.50
2017-07-30T22:59:12.794Z,5.27
2017-07-30T23:01:40.375Z,5.70
2017-07-30T23:04:08.649Z,5.70
2017-07-30T23:06:36.932Z,5.63
2017-07-30T23:09:05.197Z,5.20
2017-07-30T23:11:33.479Z,5.20
2017-07-30T23:14:01.734Z,5.43
2017-07-30T23:16:29.305Z,5.67
2017-07-30T23:18:56.882Z,5.70
2017-07-30T23:21:25.150Z,5.80
2017-07-30T23:23:53.401Z,5.40
2017-07-30T23:26:20.976Z,5.83
2017-07-30T23:28:48.462Z,6.17
2017-07-30T23:31:16.002Z,5.40
2017-07-30T23:33:44.281Z,6.07
2017-07-30T23:36:12.527Z,5.90
2017-07-30T23:38:40.111Z,6.17
2017-07-30T23:41:08.357Z,5.90
2017-07-30T23:43:35.839Z,6.43
2017-07-30T23:46:03.410Z,4.97
2017-07-30T23:48:31.704Z,5.73
2017-07-30T23:50:59.267Z,5.73
2017-07-30T23:53:26.751Z,5.83
2017-07-30T23:55:54.257Z,6.70
2017-07-30T23:58:22.638Z,6.10
